sensor_id;sensor_type;location;lat;lon;timestamp;temperature;humidity
16040;DHT22;8124;48.634;8.120;2023-02-24T00:01:12;11.80;99.90
16040;DHT22;8124;48.634;8.120;2023-02-24T00:06:20;11.80;99.90
16040;DHT22;8124;48.634;8.120;2023-02-24T00:11:24;11.90;99.90
16040;DHT22;8124;48.634;8.120;2023-02-24T00:16:28;11.90;99.90
16040;DHT22;8124;48.634;8.120;2023-02-24T00:21:32;11.90;99.90
16040;DHT22;8124;48.634;8.120;2023-02-24T00:26:36;11.90;99.90
16040;DHT22;8124;48.634;8.120;2023-02-24T00:31:40;11.90;99.90
16040;DHT22;8124;48.634;8.120;2023-02-24T00:36:44;11.80;99.90
16040;DHT22;8124;48.634;8.120;2023-02-24T00:41:48;11.90;99.90
16040;DHT22;8124;48.634;8.120;2023-02-24T00:46:51;11.90;99.90
16040;DHT22;8124;48.634;8.120;2023-02-24T00:51:55;12.00;99.90
16040;DHT22;8124;48.634;8.120;2023-02-24T00:56:59;12.00;99.90
16040;DHT22;8124;48.634;8.120;2023-02-24T01:02:04;11.90;99.90
16040;DHT22;8124;48.634;8.120;2023-02-24T01:07:08;11.90;99.90
16040;DHT22;8124;48.634;8.120;2023-02-24T01:12:13;12.00;99.90
16040;DHT22;8124;48.634;8.120;2023-02-24T01:17:30;11.90;99.90
16040;DHT22;8124;48.634;8.120;2023-02-24T01:22:33;11.90;99.90
16040;DHT22;8124;48.634;8.120;2023-02-24T01:27:37;11.70;99.90
16040;DHT22;8124;48.634;8.120;2023-02-24T01:32:41;11.70;99.90
16040;DHT22;8124;48.634;8.120;2023-02-24T01:37:45;11.60;99.90
16040;DHT22;8124;48.634;8.120;2023-02-24T01:42:49;11.70;99.90
16040;DHT22;8124;48.634;8.120;2023-02-24T01:47:56;11.70;99.90
16040;DHT22;8124;48.634;8.120;2023-02-24T01:53:04;11.60;99.90
16040;DHT22;8124;48.634;8.120;2023-02-24T01:58:12;11.80;99.90
16040;DHT22;8124;48.634;8.120;2023-02-24T02:03:21;11.90;99.90
16040;DHT22;8124;48.634;8.120;2023-02-24T02:08:26;11.80;99.90
16040;DHT22;8124;48.634;8.120;2023-02-24T02:13:31;11.80;99.90
16040;DHT22;8124;48.634;8.120;2023-02-24T02:18:46;11.60;99.90
16040;DHT22;8124;48.634;8.120;2023-02-24T02:23:55;11.50;99.90
16040;DHT22;8124;48.634;8.120;2023-02-24T02:29:14;11.40;99.90
16040;DHT22;8124;48.634;8.120;2023-02-24T02:34:33;11.50;99.90
16040;DHT22;8124;48.634;8.120;2023-02-24T02:39:46;11.50;99.90
16040;DHT22;8124;48.634;8.120;2023-02-24T02:44:59;11.50;99.90
16040;DHT22;8124;48.634;8.120;2023-02-24T02:50:12;11.60;99.90
16040;DHT22;8124;48.634;8.120;2023-02-24T02:55:23;11.50;99.90
16040;DHT22;8124;48.634;8.120;2023-02-24T03:00:32;11.30;99.90
16040;DHT22;8124;48.634;8.120;2023-02-24T03:05:42;11.30;99.90
16040;DHT22;8124;48.634;8.120;2023-02-24T03:10:48;11.30;99.90
16040;DHT22;8124;48.634;8.120;2023-02-24T03:15:53;11.30;99.90
16040;DHT22;8124;48.634;8.120;2023-02-24T03:21:02;11.30;99.90
16040;DHT22;8124;48.634;8.120;2023-02-24T03:26:12;11.30;99.90
16040;DHT22;8124;48.634;8.120;2023-02-24T03:31:25;11.30;99.90
16040;DHT22;8124;48.634;8.120;2023-02-24T03:36:32;11.30;99.90
16040;DHT22;8124;48.634;8.120;2023-02-24T03:41:39;11.10;99.90
16040;DHT22;8124;48.634;8.120;2023-02-24T03:46:44;11.10;99.90
16040;DHT22;8124;48.634;8.120;2023-02-24T03:51:57;11.10;99.90
16040;DHT22;8124;48.634;8.120;2023-02-24T03:57:13;11.20;99.90
16040;DHT22;8124;48.634;8.120;2023-02-24T04:02:22;11.30;99.90
16040;DHT22;8124;48.634;8.120;2023-02-24T04:07:36;11.30;99.90
16040;DHT22;8124;48.634;8.120;2023-02-24T04:12:44;11.30;99.90
16040;DHT22;8124;48.634;8.120;2023-02-24T04:17:55;11.20;99.90
16040;DHT22;8124;48.634;8.120;2023-02-24T04:23:10;11.20;99.90
16040;DHT22;8124;48.634;8.120;2023-02-24T04:28:14;11.20;99.90
16040;DHT22;8124;48.634;8.120;2023-02-24T04:33:20;10.90;99.90
16040;DHT22;8124;48.634;8.120;2023-02-24T04:38:25;10.70;99.90
16040;DHT22;8124;48.634;8.120;2023-02-24T04:43:28;10.60;99.90
16040;DHT22;8124;48.634;8.120;2023-02-24T04:48:32;10.60;99.90
16040;DHT22;8124;48.634;8.120;2023-02-24T04:53:36;10.60;99.90
16040;DHT22;8124;48.634;8.120;2023-02-24T04:58:47;10.70;99.90
16040;DHT22;8124;48.634;8.120;2023-02-24T05:03:50;10.90;99.90
16040;DHT22;8124;48.634;8.120;2023-02-24T05:08:54;10.90;99.90
16040;DHT22;8124;48.634;8.120;2023-02-24T05:13:58;11.00;99.90
16040;DHT22;8124;48.634;8.120;2023-02-24T05:19:00;10.90;99.90
16040;DHT22;8124;48.634;8.120;2023-02-24T05:24:21;10.80;99.90
16040;DHT22;8124;48.634;8.120;2023-02-24T05:29:27;10.90;99.90
16040;DHT22;8124;48.634;8.120;2023-02-24T05:34:32;11.00;99.90
16040;DHT22;8124;48.634;8.120;2023-02-24T05:39:37;11.30;99.90
16040;DHT22;8124;48.634;8.120;2023-02-24T05:44:39;11.40;99.90
16040;DHT22;8124;48.634;8.120;2023-02-24T05:49:42;11.20;99.90
16040;DHT22;8124;48.634;8.120;2023-02-24T05:54:47;11.10;99.90
16040;DHT22;8124;48.634;8.120;2023-02-24T05:59:50;11.10;99.90
16040;DHT22;8124;48.634;8.120;2023-02-24T06:04:53;11.10;99.90
16040;DHT22;8124;48.634;8.120;2023-02-24T06:09:58;11.20;99.90
16040;DHT22;8124;48.634;8.120;2023-02-24T06:15:01;11.00;99.90
16040;DHT22;8124;48.634;8.120;2023-02-24T06:20:09;11.00;99.90
16040;DHT22;8124;48.634;8.120;2023-02-24T06:25:17;10.90;99.90
16040;DHT22;8124;48.634;8.120;2023-02-24T06:30:21;11.00;99.90
16040;DHT22;8124;48.634;8.120;2023-02-24T06:35:25;10.90;99.90
16040;DHT22;8124;48.634;8.120;2023-02-24T06:40:30;10.90;99.90
16040;DHT22;8124;48.634;8.120;2023-02-24T06:45:32;10.80;99.90
16040;DHT22;8124;48.634;8.120;2023-02-24T06:50:36;10.70;99.90
16040;DHT22;8124;48.634;8.120;2023-02-24T06:55:42;10.60;99.90
16040;DHT22;8124;48.634;8.120;2023-02-24T07:00:47;10.50;99.90
16040;DHT22;8124;48.634;8.120;2023-02-24T07:05:57;10.60;99.90
16040;DHT22;8124;48.634;8.120;2023-02-24T07:11:14;10.70;99.90
16040;DHT22;8124;48.634;8.120;2023-02-24T07:16:21;10.60;99.90
16040;DHT22;8124;48.634;8.120;2023-02-24T07:21:26;10.80;99.90
16040;DHT22;8124;48.634;8.120;2023-02-24T07:26:32;10.80;99.90
16040;DHT22;8124;48.634;8.120;2023-02-24T07:31:35;10.90;99.90
16040;DHT22;8124;48.634;8.120;2023-02-24T07:36:38;10.90;99.90
16040;DHT22;8124;48.634;8.120;2023-02-24T07:41:52;10.90;99.90
16040;DHT22;8124;48.634;8.120;2023-02-24T07:46:56;10.90;99.90
16040;DHT22;8124;48.634;8.120;2023-02-24T07:52:00;10.90;99.90
16040;DHT22;8124;48.634;8.120;2023-02-24T07:57:04;10.90;99.90
16040;DHT22;8124;48.634;8.120;2023-02-24T08:02:14;10.80;99.90
16040;DHT22;8124;48.634;8.120;2023-02-24T08:07:19;10.90;99.90
16040;DHT22;8124;48.634;8.120;2023-02-24T08:12:27;10.90;99.90
16040;DHT22;8124;48.634;8.120;2023-02-24T08:17:31;11.00;99.90
16040;DHT22;8124;48.634;8.120;2023-02-24T08:22:34;11.10;99.90
16040;DHT22;8124;48.634;8.120;2023-02-24T08:27:39;11.10;99.90
16040;DHT22;8124;48.634;8.120;2023-02-24T08:32:42;11.20;99.90
16040;DHT22;8124;48.634;8.120;2023-02-24T08:37:49;11.40;99.90
16040;DHT22;8124;48.634;8.120;2023-02-24T08:42:54;11.40;99.90
16040;DHT22;8124;48.634;8.120;2023-02-24T08:47:59;11.50;99.90
16040;DHT22;8124;48.634;8.120;2023-02-24T08:53:14;11.50;99.90
16040;DHT22;8124;48.634;8.120;2023-02-24T08:58:21;11.50;99.90
16040;DHT22;8124;48.634;8.120;2023-02-24T09:03:28;11.60;99.90
16040;DHT22;8124;48.634;8.120;2023-02-24T09:08:36;11.80;99.90
16040;DHT22;8124;48.634;8.120;2023-02-24T09:13:42;11.90;99.90
16040;DHT22;8124;48.634;8.120;2023-02-24T09:18:53;11.90;99.90
16040;DHT22;8124;48.634;8.120;2023-02-24T09:24:10;11.70;99.90
16040;DHT22;8124;48.634;8.120;2023-02-24T09:29:14;11.60;99.90
16040;DHT22;8124;48.634;8.120;2023-02-24T09:34:32;11.70;99.90
16040;DHT22;8124;48.634;8.120;2023-02-24T09:39:35;11.60;99.90
16040;DHT22;8124;48.634;8.120;2023-02-24T09:44:55;11.60;99.90
16040;DHT22;8124;48.634;8.120;2023-02-24T09:50:05;11.50;99.90
16040;DHT22;8124;48.634;8.120;2023-02-24T09:55:17;11.40;99.90
16040;DHT22;8124;48.634;8.120;2023-02-24T10:00:29;11.60;99.90
16040;DHT22;8124;48.634;8.120;2023-02-24T10:05:40;11.90;99.90
16040;DHT22;8124;48.634;8.120;2023-02-24T10:10:50;11.90;99.90
16040;DHT22;8124;48.634;8.120;2023-02-24T10:16:12;11.90;99.90
16040;DHT22;8124;48.634;8.120;2023-02-24T10:21:22;11.80;99.90
16040;DHT22;8124;48.634;8.120;2023-02-24T10:26:36;11.90;99.90
16040;DHT22;8124;48.634;8.120;2023-02-24T10:32:24;11.80;99.90
16040;DHT22;8124;48.634;8.120;2023-02-24T10:37:34;11.70;99.90
16040;DHT22;8124;48.634;8.120;2023-02-24T10:42:38;11.70;99.90
16040;DHT22;8124;48.634;8.120;2023-02-24T10:47:51;11.80;99.90
16040;DHT22;8124;48.634;8.120;2023-02-24T10:53:02;11.90;99.90
16040;DHT22;8124;48.634;8.120;2023-02-24T10:58:31;12.00;99.90
16040;DHT22;8124;48.634;8.120;2023-02-24T11:03:52;12.00;99.90
16040;DHT22;8124;48.634;8.120;2023-02-24T11:09:24;12.10;99.90
16040;DHT22;8124;48.634;8.120;2023-02-24T11:14:38;12.10;99.90
16040;DHT22;8124;48.634;8.120;2023-02-24T11:20:20;12.80;99.90
16040;DHT22;8124;48.634;8.120;2023-02-24T11:25:31;12.60;99.90
16040;DHT22;8124;48.634;8.120;2023-02-24T11:30:39;12.50;99.90
16040;DHT22;8124;48.634;8.120;2023-02-24T11:35:57;12.60;99.90
16040;DHT22;8124;48.634;8.120;2023-02-24T11:41:11;12.70;99.90
16040;DHT22;8124;48.634;8.120;2023-02-24T11:46:20;12.70;99.90
16040;DHT22;8124;48.634;8.120;2023-02-24T11:51:32;12.80;99.90
16040;DHT22;8124;48.634;8.120;2023-02-24T11:56:40;12.90;99.90
16040;DHT22;8124;48.634;8.120;2023-02-24T12:01:48;13.00;99.90
16040;DHT22;8124;48.634;8.120;2023-02-24T12:06:58;12.90;99.90
16040;DHT22;8124;48.634;8.120;2023-02-24T12:12:11;12.80;99.90
16040;DHT22;8124;48.634;8.120;2023-02-24T12:17:20;12.90;99.90
16040;DHT22;8124;48.634;8.120;2023-02-24T12:22:32;12.90;99.90
16040;DHT22;8124;48.634;8.120;2023-02-24T12:27:50;12.80;99.90
16040;DHT22;8124;48.634;8.120;2023-02-24T12:33:13;12.80;99.90
16040;DHT22;8124;48.634;8.120;2023-02-24T12:38:30;12.70;99.90
16040;DHT22;8124;48.634;8.120;2023-02-24T12:43:44;12.80;99.90
16040;DHT22;8124;48.634;8.120;2023-02-24T12:49:12;12.70;99.90
16040;DHT22;8124;48.634;8.120;2023-02-24T12:54:23;12.90;99.90
16040;DHT22;8124;48.634;8.120;2023-02-24T12:59:33;12.80;99.90
16040;DHT22;8124;48.634;8.120;2023-02-24T13:04:42;12.50;99.90
16040;DHT22;8124;48.634;8.120;2023-02-24T13:10:02;12.60;99.90
16040;DHT22;8124;48.634;8.120;2023-02-24T13:15:18;12.70;99.90
16040;DHT22;8124;48.634;8.120;2023-02-24T13:20:30;12.70;99.90
16040;DHT22;8124;48.634;8.120;2023-02-24T13:25:35;12.60;99.90
16040;DHT22;8124;48.634;8.120;2023-02-24T13:30:41;12.60;99.90
16040;DHT22;8124;48.634;8.120;2023-02-24T13:35:46;12.60;99.90
16040;DHT22;8124;48.634;8.120;2023-02-24T13:40:51;12.80;99.90
16040;DHT22;8124;48.634;8.120;2023-02-24T13:45:57;12.70;99.90
16040;DHT22;8124;48.634;8.120;2023-02-24T13:51:22;12.70;99.90
16040;DHT22;8124;48.634;8.120;2023-02-24T13:56:37;12.60;99.90
16040;DHT22;8124;48.634;8.120;2023-02-24T14:01:47;12.60;99.90
16040;DHT22;8124;48.634;8.120;2023-02-24T14:06:53;12.50;99.90
16040;DHT22;8124;48.634;8.120;2023-02-24T14:12:00;12.50;99.90
16040;DHT22;8124;48.634;8.120;2023-02-24T14:17:04;12.50;99.90
16040;DHT22;8124;48.634;8.120;2023-02-24T14:22:17;12.50;99.90
16040;DHT22;8124;48.634;8.120;2023-02-24T14:27:24;12.70;99.90
16040;DHT22;8124;48.634;8.120;2023-02-24T14:32:32;12.50;99.90
16040;DHT22;8124;48.634;8.120;2023-02-24T14:37:35;12.50;99.90
16040;DHT22;8124;48.634;8.120;2023-02-24T14:42:47;12.50;99.90
16040;DHT22;8124;48.634;8.120;2023-02-24T14:47:51;12.60;99.90
16040;DHT22;8124;48.634;8.120;2023-02-24T14:52:57;12.40;99.90
16040;DHT22;8124;48.634;8.120;2023-02-24T14:58:06;12.50;99.90
16040;DHT22;8124;48.634;8.120;2023-02-24T15:03:16;12.50;99.90
16040;DHT22;8124;48.634;8.120;2023-02-24T15:08:28;12.30;99.90
16040;DHT22;8124;48.634;8.120;2023-02-24T15:13:37;12.40;99.90
16040;DHT22;8124;48.634;8.120;2023-02-24T15:18:41;12.50;99.90
16040;DHT22;8124;48.634;8.120;2023-02-24T15:23:45;12.50;99.90
16040;DHT22;8124;48.634;8.120;2023-02-24T15:28:58;12.70;99.90
16040;DHT22;8124;48.634;8.120;2023-02-24T15:34:01;12.90;99.90
16040;DHT22;8124;48.634;8.120;2023-02-24T15:39:06;12.70;99.90
16040;DHT22;8124;48.634;8.120;2023-02-24T15:44:26;12.80;99.90
16040;DHT22;8124;48.634;8.120;2023-02-24T15:49:29;12.60;99.90
16040;DHT22;8124;48.634;8.120;2023-02-24T15:54:35;12.40;99.90
16040;DHT22;8124;48.634;8.120;2023-02-24T15:59:39;12.50;99.90
16040;DHT22;8124;48.634;8.120;2023-02-24T16:04:43;12.40;99.90
16040;DHT22;8124;48.634;8.120;2023-02-24T16:09:46;12.40;99.90
16040;DHT22;8124;48.634;8.120;2023-02-24T16:14:51;12.30;99.90
16040;DHT22;8124;48.634;8.120;2023-02-24T16:20:05;12.20;99.90
16040;DHT22;8124;48.634;8.120;2023-02-24T16:25:13;12.00;99.90
16040;DHT22;8124;48.634;8.120;2023-02-24T16:30:18;11.90;99.90
16040;DHT22;8124;48.634;8.120;2023-02-24T16:35:24;11.90;99.90
16040;DHT22;8124;48.634;8.120;2023-02-24T16:40:30;11.80;99.90
16040;DHT22;8124;48.634;8.120;2023-02-24T16:45:39;11.80;99.90
16040;DHT22;8124;48.634;8.120;2023-02-24T16:50:43;11.70;99.90
16040;DHT22;8124;48.634;8.120;2023-02-24T16:55:46;11.80;99.90
16040;DHT22;8124;48.634;8.120;2023-02-24T17:00:53;12.00;99.90
16040;DHT22;8124;48.634;8.120;2023-02-24T17:05:58;12.00;99.90
16040;DHT22;8124;48.634;8.120;2023-02-24T17:11:03;12.10;99.90
16040;DHT22;8124;48.634;8.120;2023-02-24T17:16:07;12.10;99.90
16040;DHT22;8124;48.634;8.120;2023-02-24T17:21:13;11.80;99.90
16040;DHT22;8124;48.634;8.120;2023-02-24T17:26:16;11.80;99.90
16040;DHT22;8124;48.634;8.120;2023-02-24T17:31:20;11.90;99.90
16040;DHT22;8124;48.634;8.120;2023-02-24T17:36:24;11.90;99.90
16040;DHT22;8124;48.634;8.120;2023-02-24T17:41:27;11.90;99.90
16040;DHT22;8124;48.634;8.120;2023-02-24T17:46:31;11.60;99.90
16040;DHT22;8124;48.634;8.120;2023-02-24T17:51:34;11.60;99.90
16040;DHT22;8124;48.634;8.120;2023-02-24T17:56:37;11.60;99.90
16040;DHT22;8124;48.634;8.120;2023-02-24T18:01:41;11.70;99.90
16040;DHT22;8124;48.634;8.120;2023-02-24T18:06:44;11.70;99.90
16040;DHT22;8124;48.634;8.120;2023-02-24T18:11:47;11.60;99.90
16040;DHT22;8124;48.634;8.120;2023-02-24T18:16:52;11.50;99.90
16040;DHT22;8124;48.634;8.120;2023-02-24T18:21:54;11.50;99.90
16040;DHT22;8124;48.634;8.120;2023-02-24T18:26:57;11.50;99.90
16040;DHT22;8124;48.634;8.120;2023-02-24T18:32:02;11.50;99.90
16040;DHT22;8124;48.634;8.120;2023-02-24T18:37:05;11.30;99.90
16040;DHT22;8124;48.634;8.120;2023-02-24T18:42:08;11.30;99.90
16040;DHT22;8124;48.634;8.120;2023-02-24T18:47:13;11.30;99.90
16040;DHT22;8124;48.634;8.120;2023-02-24T18:52:17;11.30;99.90
16040;DHT22;8124;48.634;8.120;2023-02-24T18:57:20;11.20;99.90
16040;DHT22;8124;48.634;8.120;2023-02-24T19:02:29;11.30;99.90
16040;DHT22;8124;48.634;8.120;2023-02-24T19:07:32;11.30;99.90
16040;DHT22;8124;48.634;8.120;2023-02-24T19:12:35;11.30;99.90
16040;DHT22;8124;48.634;8.120;2023-02-24T19:17:39;11.30;99.90
16040;DHT22;8124;48.634;8.120;2023-02-24T19:22:43;11.30;99.90
16040;DHT22;8124;48.634;8.120;2023-02-24T19:27:45;11.30;99.90
16040;DHT22;8124;48.634;8.120;2023-02-24T19:32:50;10.90;99.90
16040;DHT22;8124;48.634;8.120;2023-02-24T19:37:53;10.90;99.90
16040;DHT22;8124;48.634;8.120;2023-02-24T19:42:56;10.90;99.90
16040;DHT22;8124;48.634;8.120;2023-02-24T19:48:01;11.10;99.90
16040;DHT22;8124;48.634;8.120;2023-02-24T19:53:04;10.90;99.90
16040;DHT22;8124;48.634;8.120;2023-02-24T19:58:18;10.80;99.90
16040;DHT22;8124;48.634;8.120;2023-02-24T20:03:22;11.10;99.90
16040;DHT22;8124;48.634;8.120;2023-02-24T20:08:29;11.00;99.90
16040;DHT22;8124;48.634;8.120;2023-02-24T20:13:32;10.80;99.90
16040;DHT22;8124;48.634;8.120;2023-02-24T20:18:37;11.20;99.90
16040;DHT22;8124;48.634;8.120;2023-02-24T20:23:40;11.10;99.90
16040;DHT22;8124;48.634;8.120;2023-02-24T20:28:45;11.00;99.90
16040;DHT22;8124;48.634;8.120;2023-02-24T20:33:50;10.80;99.90
16040;DHT22;8124;48.634;8.120;2023-02-24T20:38:57;10.80;99.90
16040;DHT22;8124;48.634;8.120;2023-02-24T20:44:00;10.70;99.90
16040;DHT22;8124;48.634;8.120;2023-02-24T20:49:06;10.80;99.90
16040;DHT22;8124;48.634;8.120;2023-02-24T20:54:11;10.60;99.90
16040;DHT22;8124;48.634;8.120;2023-02-24T20:59:18;10.50;99.90
16040;DHT22;8124;48.634;8.120;2023-02-24T21:04:23;10.50;99.90
16040;DHT22;8124;48.634;8.120;2023-02-24T21:09:26;10.50;99.90
16040;DHT22;8124;48.634;8.120;2023-02-24T21:14:29;10.60;99.90
16040;DHT22;8124;48.634;8.120;2023-02-24T21:19:34;10.60;99.90
16040;DHT22;8124;48.634;8.120;2023-02-24T21:24:37;10.60;99.90
16040;DHT22;8124;48.634;8.120;2023-02-24T21:29:40;10.50;99.90
16040;DHT22;8124;48.634;8.120;2023-02-24T21:34:44;10.30;99.90
16040;DHT22;8124;48.634;8.120;2023-02-24T21:39:47;10.40;99.90
16040;DHT22;8124;48.634;8.120;2023-02-24T21:44:50;10.40;99.90
16040;DHT22;8124;48.634;8.120;2023-02-24T21:49:54;10.30;99.90
16040;DHT22;8124;48.634;8.120;2023-02-24T21:54:57;10.40;99.90
16040;DHT22;8124;48.634;8.120;2023-02-24T22:00:00;10.20;99.90
16040;DHT22;8124;48.634;8.120;2023-02-24T22:05:13;10.30;99.90
16040;DHT22;8124;48.634;8.120;2023-02-24T22:10:20;10.30;99.90
16040;DHT22;8124;48.634;8.120;2023-02-24T22:15:24;10.30;99.90
16040;DHT22;8124;48.634;8.120;2023-02-24T22:20:28;10.30;99.90
16040;DHT22;8124;48.634;8.120;2023-02-24T22:25:31;10.20;99.90
16040;DHT22;8124;48.634;8.120;2023-02-24T22:30:34;10.10;99.90
16040;DHT22;8124;48.634;8.120;2023-02-24T22:35:38;10.10;99.90
16040;DHT22;8124;48.634;8.120;2023-02-24T22:40:41;10.20;99.90
16040;DHT22;8124;48.634;8.120;2023-02-24T22:45:44;10.10;99.90
16040;DHT22;8124;48.634;8.120;2023-02-24T22:50:59;10.00;99.90
16040;DHT22;8124;48.634;8.120;2023-02-24T22:56:03;10.00;99.90
16040;DHT22;8124;48.634;8.120;2023-02-24T23:01:08;9.90;99.90
16040;DHT22;8124;48.634;8.120;2023-02-24T23:06:14;9.80;99.90
16040;DHT22;8124;48.634;8.120;2023-02-24T23:11:19;9.80;99.90
16040;DHT22;8124;48.634;8.120;2023-02-24T23:16:24;9.70;99.90
16040;DHT22;8124;48.634;8.120;2023-02-24T23:21:33;9.60;99.90
16040;DHT22;8124;48.634;8.120;2023-02-24T23:26:38;9.50;99.90
16040;DHT22;8124;48.634;8.120;2023-02-24T23:31:43;9.30;99.90
16040;DHT22;8124;48.634;8.120;2023-02-24T23:36:47;9.30;99.90
16040;DHT22;8124;48.634;8.120;2023-02-24T23:41:50;9.30;99.90
16040;DHT22;8124;48.634;8.120;2023-02-24T23:46:57;9.40;99.90
16040;DHT22;8124;48.634;8.120;2023-02-24T23:52:03;9.30;99.90
16040;DHT22;8124;48.634;8.120;2023-02-24T23:57:06;9.20;99.90
